createdAt,value
2023-03-11T00:01:13.881Z,0.80
2023-03-11T00:03:40.731Z,0.90
2023-03-11T00:06:10.557Z,0.80
2023-03-11T00:08:37.467Z,0.80
2023-03-11T00:11:04.462Z,0.80
2023-03-11T00:13:31.313Z,0.90
2023-03-11T00:16:00.335Z,0.90
2023-03-11T00:18:30.327Z,0.90
2023-03-11T00:20:59.007Z,0.80
2023-03-11T00:23:27.127Z,0.80
2023-03-11T00:25:54.501Z,0.70
2023-03-11T00:28:25.373Z,0.70
2023-03-11T00:30:54.105Z,0.60
2023-03-11T00:33:21.005Z,0.60
2023-03-11T00:35:48.001Z,0.60
2023-03-11T00:38:17.075Z,2.30
2023-03-11T00:40:46.289Z,0.60
2023-03-11T00:43:13.481Z,0.50
2023-03-11T00:45:40.524Z,0.50
2023-03-11T00:48:08.355Z,0.50
2023-03-11T00:50:37.448Z,0.60
2023-03-11T00:53:04.796Z,0.60
2023-03-11T00:55:33.667Z,0.60
2023-03-11T00:58:03.528Z,0.70
2023-03-11T01:00:31.282Z,0.80
2023-03-11T01:02:59.654Z,0.90
2023-03-11T01:05:30.155Z,0.90
2023-03-11T01:07:57.177Z,1.00
2023-03-11T01:10:24.877Z,2.70
2023-03-11T01:12:51.919Z,1.10
2023-03-11T01:15:26.551Z,1.10
2023-03-11T01:17:53.446Z,1.10
2023-03-11T01:20:20.511Z,1.00
2023-03-11T01:22:48.191Z,1.00
2023-03-11T01:25:18.010Z,1.00
2023-03-11T01:27:45.044Z,1.00
2023-03-11T01:30:16.696Z,0.80
2023-03-11T01:32:43.709Z,0.80
2023-03-11T01:35:13.903Z,0.90
2023-03-11T01:37:41.146Z,0.90
2023-03-11T01:40:14.602Z,1.00
2023-03-11T01:42:41.479Z,1.00
2023-03-11T01:45:37.279Z,1.10
2023-03-11T01:48:04.609Z,1.00
2023-03-11T01:50:37.813Z,1.00
2023-03-11T01:53:06.516Z,1.10
2023-03-11T01:55:34.901Z,1.10
2023-03-11T01:58:04.810Z,2.00
2023-03-11T02:00:31.742Z,1.70
2023-03-11T02:03:02.372Z,1.10
2023-03-11T02:05:29.334Z,1.00
2023-03-11T02:07:56.484Z,1.00
2023-03-11T02:10:23.592Z,1.00
2023-03-11T02:12:51.497Z,1.10
2023-03-11T02:15:19.168Z,1.10
2023-03-11T02:17:46.079Z,1.00
2023-03-11T02:20:18.850Z,1.00
2023-03-11T02:22:46.184Z,0.90
2023-03-11T02:25:37.973Z,0.70
2023-03-11T02:28:08.322Z,0.70
2023-03-11T02:30:35.971Z,0.70
2023-03-11T02:33:03.605Z,1.20
2023-03-11T02:35:31.732Z,0.80
2023-03-11T02:37:58.672Z,0.80
2023-03-11T02:40:27.051Z,0.80
2023-03-11T02:43:03.658Z,0.80
2023-03-11T02:45:31.711Z,0.80
2023-03-11T02:48:00.559Z,0.70
2023-03-11T02:50:29.730Z,0.60
2023-03-11T02:52:56.910Z,0.60
2023-03-11T02:55:23.767Z,0.60
2023-03-11T02:57:50.673Z,0.80
2023-03-11T03:00:18.949Z,0.40
2023-03-11T03:02:46.670Z,0.40
2023-03-11T03:05:13.836Z,0.50
2023-03-11T03:07:40.613Z,0.50
2023-03-11T03:10:08.297Z,0.50
2023-03-11T03:12:35.206Z,0.60
2023-03-11T03:15:02.166Z,0.50
2023-03-11T03:17:29.058Z,0.30
2023-03-11T03:19:55.973Z,0.10
2023-03-11T03:22:25.987Z,-0.10
2023-03-11T03:24:53.060Z,-0.30
2023-03-11T03:27:20.189Z,-0.50
2023-03-11T03:29:47.330Z,-0.50
2023-03-11T03:32:14.377Z,-0.60
2023-03-11T03:34:41.347Z,-0.60
2023-03-11T03:37:08.340Z,-0.60
2023-03-11T03:39:35.171Z,-0.50
2023-03-11T03:42:02.047Z,-0.50
2023-03-11T03:44:30.734Z,0.60
2023-03-11T03:46:57.627Z,-0.60
2023-03-11T03:49:24.665Z,0.80
2023-03-11T03:51:51.583Z,-0.80
2023-03-11T03:54:18.519Z,-0.80
2023-03-11T03:56:45.384Z,-0.90
2023-03-11T03:59:12.838Z,-1.00
2023-03-11T04:01:39.844Z,-1.10
2023-03-11T04:04:06.712Z,-1.20
2023-03-11T04:06:33.489Z,-1.20
2023-03-11T04:09:00.771Z,-1.20
2023-03-11T04:11:27.696Z,-1.20
2023-03-11T04:13:55.167Z,-1.10
2023-03-11T04:16:24.156Z,-1.10
2023-03-11T04:18:51.192Z,-1.20
2023-03-11T04:21:18.131Z,-1.20
2023-03-11T04:23:45.049Z,-1.20
2023-03-11T04:26:12.075Z,-1.30
2023-03-11T04:28:38.879Z,-1.40
2023-03-11T04:31:06.354Z,-1.40
2023-03-11T04:33:33.842Z,-1.40
2023-03-11T04:36:05.830Z,-1.50
2023-03-11T04:38:32.889Z,-1.50
2023-03-11T04:41:03.735Z,-1.70
2023-03-11T04:43:30.683Z,-1.80
2023-03-11T04:45:57.720Z,-1.90
2023-03-11T04:48:27.172Z,-1.90
2023-03-11T04:50:55.770Z,-2.00
2023-03-11T04:53:23.825Z,-2.20
2023-03-11T04:55:50.791Z,-2.20
2023-03-11T04:58:18.087Z,-2.20
2023-03-11T05:00:44.945Z,-2.30
2023-03-11T05:03:12.005Z,-2.30
2023-03-11T05:05:39.090Z,-2.30
2023-03-11T05:08:05.935Z,-0.60
2023-03-11T05:10:33.258Z,-2.30
2023-03-11T05:13:00.194Z,-2.40
2023-03-11T05:15:27.129Z,-2.40
2023-03-11T05:17:53.987Z,-2.50
2023-03-11T05:20:20.886Z,-2.60
2023-03-11T05:22:48.150Z,-2.60
2023-03-11T05:25:15.206Z,-2.70
2023-03-11T05:27:42.101Z,-2.70
2023-03-11T05:30:09.636Z,-2.80
2023-03-11T05:32:36.490Z,-2.90
2023-03-11T05:35:03.738Z,-2.30
2023-03-11T05:37:32.515Z,-2.80
2023-03-11T05:39:59.689Z,-2.90
2023-03-11T05:42:26.510Z,-3.00
2023-03-11T05:44:53.391Z,-3.00
2023-03-11T05:47:20.386Z,-3.10
2023-03-11T05:49:48.847Z,-3.20
2023-03-11T05:52:16.294Z,-3.20
2023-03-11T05:54:43.279Z,-2.30
2023-03-11T05:57:10.309Z,-3.30
2023-03-11T05:59:37.860Z,-3.30
2023-03-11T06:02:05.387Z,-3.30
2023-03-11T06:04:32.479Z,-2.80
2023-03-11T06:06:59.989Z,-3.30
2023-03-11T06:09:27.043Z,-3.30
2023-03-11T06:11:53.958Z,-3.30
2023-03-11T06:14:20.736Z,-3.20
2023-03-11T06:16:47.771Z,-1.60
2023-03-11T06:19:14.551Z,-3.30
2023-03-11T06:21:41.656Z,-3.40
2023-03-11T06:24:08.596Z,-3.40
2023-03-11T06:26:35.544Z,-3.40
2023-03-11T06:29:02.601Z,-3.40
2023-03-11T06:31:30.476Z,-3.40
2023-03-11T06:33:57.642Z,-3.30
2023-03-11T06:36:24.667Z,-3.20
2023-03-11T06:38:53.266Z,-3.20
2023-03-11T06:41:20.418Z,-3.20
2023-03-11T06:43:47.374Z,-3.20
2023-03-11T06:46:18.245Z,-3.20
2023-03-11T06:48:46.560Z,-3.20
2023-03-11T06:51:14.098Z,-3.10
2023-03-11T06:53:41.509Z,-2.90
2023-03-11T06:56:11.208Z,-2.20
2023-03-11T06:58:40.123Z,-2.80
2023-03-11T07:01:11.157Z,-2.60
2023-03-11T07:03:38.120Z,-2.50
2023-03-11T07:06:06.767Z,-2.50
2023-03-11T07:08:34.020Z,-2.50
2023-03-11T07:11:10.780Z,-2.50
2023-03-11T07:13:37.898Z,-2.40
2023-03-11T07:16:11.654Z,-2.40
2023-03-11T07:18:39.207Z,-2.30
2023-03-11T07:21:08.775Z,-2.30
2023-03-11T07:23:36.293Z,-2.30
2023-03-11T07:26:03.308Z,-2.20
2023-03-11T07:28:31.027Z,-2.10
2023-03-11T07:30:58.112Z,-1.90
2023-03-11T07:33:25.612Z,-1.80
2023-03-11T07:35:52.831Z,-1.60
2023-03-11T07:38:20.056Z,-1.40
2023-03-11T07:40:47.509Z,-1.20
2023-03-11T07:43:15.151Z,-1.00
2023-03-11T07:45:42.159Z,-0.90
2023-03-11T07:48:09.197Z,0.20
2023-03-11T07:50:36.367Z,1.20
2023-03-11T07:53:03.273Z,-0.40
2023-03-11T07:55:30.462Z,-0.40
2023-03-11T07:57:57.326Z,-0.30
2023-03-11T08:00:24.209Z,-0.20
2023-03-11T08:02:52.037Z,-0.10
2023-03-11T08:05:21.106Z,0.20
2023-03-11T08:07:48.031Z,0.60
2023-03-11T08:10:15.277Z,0.90
2023-03-11T08:12:42.289Z,1.10
2023-03-11T08:15:09.889Z,1.30
2023-03-11T08:17:36.917Z,1.30
2023-03-11T08:20:05.165Z,1.20
2023-03-11T08:22:31.966Z,1.30
2023-03-11T08:24:58.865Z,1.40
2023-03-11T08:27:29.142Z,1.50
2023-03-11T08:29:55.942Z,1.60
2023-03-11T08:32:23.178Z,1.80
2023-03-11T08:34:50.040Z,2.00
2023-03-11T08:37:17.002Z,2.20
2023-03-11T08:39:43.973Z,2.30
2023-03-11T08:42:11.564Z,2.40
2023-03-11T08:44:38.839Z,3.50
2023-03-11T08:47:05.737Z,2.70
2023-03-11T08:49:32.475Z,3.00
2023-03-11T08:51:59.208Z,3.20
2023-03-11T08:54:25.954Z,3.30
2023-03-11T08:56:52.894Z,3.30
2023-03-11T08:59:19.641Z,3.40
2023-03-11T09:01:46.970Z,3.40
2023-03-11T09:04:13.988Z,3.40
2023-03-11T09:06:44.404Z,3.50
2023-03-11T09:09:12.816Z,3.60
2023-03-11T09:11:39.554Z,3.70
2023-03-11T09:14:06.238Z,3.70
2023-03-11T09:16:33.126Z,3.80
2023-03-11T09:19:06.946Z,3.90
2023-03-11T09:21:34.992Z,3.90
2023-03-11T09:24:04.369Z,4.00
2023-03-11T09:26:32.050Z,4.10
2023-03-11T09:28:58.869Z,4.10
2023-03-11T09:31:25.640Z,4.10
2023-03-11T09:33:53.049Z,4.10
2023-03-11T09:36:21.352Z,4.10
2023-03-11T09:38:48.755Z,4.10
2023-03-11T09:41:18.549Z,4.10
2023-03-11T09:43:51.076Z,4.10
2023-03-11T09:46:43.422Z,4.10
2023-03-11T09:49:19.552Z,4.20
2023-03-11T09:52:15.958Z,4.30
2023-03-11T09:54:51.705Z,4.40
2023-03-11T09:57:27.537Z,4.30
2023-03-11T09:59:56.516Z,4.30
2023-03-11T10:02:28.202Z,4.30
2023-03-11T10:05:22.218Z,4.20
2023-03-11T10:08:16.821Z,4.30
2023-03-11T10:10:49.757Z,4.30
2023-03-11T10:13:35.759Z,4.50
2023-03-11T10:16:20.451Z,4.40
2023-03-11T10:19:14.050Z,4.40
2023-03-11T10:21:40.700Z,4.60
2023-03-11T10:24:36.071Z,4.80
2023-03-11T10:27:11.661Z,5.00
2023-03-11T10:30:13.680Z,5.00
2023-03-11T10:32:46.905Z,5.00
2023-03-11T10:35:21.149Z,5.10
2023-03-11T10:37:59.298Z,5.20
2023-03-11T10:40:33.526Z,5.10
2023-03-11T10:43:04.798Z,5.10
2023-03-11T10:45:38.617Z,5.10
2023-03-11T10:48:13.098Z,5.10
2023-03-11T10:51:15.889Z,5.10
2023-03-11T10:53:55.142Z,5.30
2023-03-11T10:56:37.076Z,5.40
2023-03-11T10:59:23.864Z,5.30
2023-03-11T11:02:01.907Z,5.20
2023-03-11T11:04:37.114Z,5.20
2023-03-11T11:07:30.738Z,5.10
2023-03-11T11:10:20.459Z,5.00
2023-03-11T11:13:13.225Z,4.90
2023-03-11T11:16:02.128Z,4.80
2023-03-11T11:18:31.912Z,5.00
2023-03-11T11:21:02.083Z,5.00
2023-03-11T11:23:36.506Z,5.10
2023-03-11T11:26:07.056Z,5.10
2023-03-11T11:28:34.425Z,5.10
2023-03-11T11:31:06.521Z,5.20
2023-03-11T11:33:39.427Z,5.20
2023-03-11T11:36:15.205Z,5.30
2023-03-11T11:38:42.576Z,5.30
2023-03-11T11:41:14.561Z,5.20
2023-03-11T11:43:52.280Z,5.30
2023-03-11T11:46:40.375Z,5.30
2023-03-11T11:49:19.857Z,5.30
2023-03-11T11:52:09.800Z,5.40
2023-03-11T11:54:50.761Z,5.40
2023-03-11T11:57:20.968Z,5.40
2023-03-11T11:59:48.293Z,5.50
2023-03-11T12:02:18.345Z,5.40
2023-03-11T12:05:03.753Z,5.30
2023-03-11T12:07:44.270Z,5.30
2023-03-11T12:10:29.519Z,5.60
2023-03-11T12:13:16.747Z,5.80
2023-03-11T12:16:09.432Z,5.90
2023-03-11T12:18:42.944Z,6.10
2023-03-11T12:21:23.888Z,6.20
2023-03-11T12:24:16.936Z,6.20
2023-03-11T12:26:46.800Z,6.30
2023-03-11T12:29:31.696Z,6.40
2023-03-11T12:32:01.484Z,6.30
2023-03-11T12:34:29.537Z,6.20
2023-03-11T12:37:03.246Z,6.90
2023-03-11T12:39:32.748Z,6.20
2023-03-11T12:42:11.805Z,6.30
2023-03-11T12:44:39.771Z,6.40
2023-03-11T12:47:12.354Z,6.40
2023-03-11T12:50:16.656Z,6.40
2023-03-11T12:52:54.890Z,6.40
2023-03-11T12:55:30.386Z,6.50
2023-03-11T12:58:37.784Z,6.30
2023-03-11T13:01:19.792Z,6.20
2023-03-11T13:04:01.813Z,6.20
2023-03-11T13:07:09.768Z,6.10
2023-03-11T13:09:36.884Z,6.10
2023-03-11T13:12:04.749Z,6.20
2023-03-11T13:14:33.198Z,6.20
2023-03-11T13:17:39.089Z,6.10
2023-03-11T13:20:49.132Z,5.80
2023-03-11T13:23:21.818Z,5.50
2023-03-11T13:25:50.173Z,5.30
2023-03-11T13:28:35.863Z,5.00
2023-03-11T13:31:24.562Z,4.80
2023-03-11T13:34:14.923Z,4.80
2023-03-11T13:37:00.432Z,5.00
2023-03-11T13:39:44.629Z,5.40
2023-03-11T13:42:32.693Z,5.40
2023-03-11T13:45:00.589Z,5.30
2023-03-11T13:47:30.246Z,5.30
2023-03-11T13:50:09.496Z,5.20
2023-03-11T13:52:42.384Z,5.10
2023-03-11T13:55:33.662Z,5.00
2023-03-11T13:58:00.469Z,4.80
2023-03-11T14:00:31.170Z,4.70
2023-03-11T14:03:01.977Z,4.60
2023-03-11T14:05:35.228Z,4.50
2023-03-11T14:08:24.347Z,4.50
2023-03-11T14:10:58.227Z,4.40
2023-03-11T14:13:30.772Z,4.20
2023-03-11T14:16:13.463Z,4.10
2023-03-11T14:18:44.637Z,4.00
2023-03-11T14:21:20.586Z,3.80
2023-03-11T14:23:53.054Z,3.70
2023-03-11T14:26:21.147Z,3.70
2023-03-11T14:28:57.524Z,3.80
2023-03-11T14:31:36.101Z,3.90
2023-03-11T14:34:14.102Z,4.10
2023-03-11T14:36:41.556Z,4.00
2023-03-11T14:39:32.746Z,3.90
2023-03-11T14:42:18.767Z,3.70
2023-03-11T14:44:55.402Z,3.60
2023-03-11T14:47:35.888Z,4.00
2023-03-11T14:50:06.266Z,3.40
2023-03-11T14:52:38.835Z,3.50
2023-03-11T14:55:33.822Z,3.70
2023-03-11T14:58:05.508Z,3.90
2023-03-11T15:00:40.443Z,3.90
2023-03-11T15:03:23.699Z,3.90
2023-03-11T15:05:56.602Z,3.90
2023-03-11T15:08:28.513Z,3.90
2023-03-11T15:11:03.453Z,3.80
2023-03-11T15:13:30.595Z,3.80
2023-03-11T15:15:59.203Z,5.20
2023-03-11T15:18:32.191Z,3.90
2023-03-11T15:21:08.271Z,3.80
2023-03-11T15:23:36.584Z,3.80
2023-03-11T15:26:04.289Z,3.70
2023-03-11T15:28:32.987Z,3.70
2023-03-11T15:31:37.782Z,3.60
2023-03-11T15:34:21.055Z,3.60
2023-03-11T15:36:47.710Z,3.50
2023-03-11T15:39:16.217Z,3.40
2023-03-11T15:41:44.846Z,3.30
2023-03-11T15:44:30.576Z,3.30
2023-03-11T15:46:59.851Z,3.20
2023-03-11T15:49:28.217Z,3.20
2023-03-11T15:52:02.756Z,3.10
2023-03-11T15:54:29.988Z,3.10
2023-03-11T15:56:58.837Z,3.10
2023-03-11T15:59:26.225Z,3.10
2023-03-11T16:01:52.895Z,3.00
2023-03-11T16:04:20.774Z,2.90
2023-03-11T16:06:56.691Z,2.90
2023-03-11T16:09:31.691Z,2.90
2023-03-11T16:11:58.438Z,2.80
2023-03-11T16:14:25.256Z,2.80
2023-03-11T16:16:51.962Z,2.70
2023-03-11T16:19:18.632Z,2.60
2023-03-11T16:21:49.476Z,2.60
2023-03-11T16:24:21.158Z,2.00
2023-03-11T16:26:48.431Z,4.00
2023-03-11T16:29:19.565Z,2.70
2023-03-11T16:31:47.579Z,2.70
2023-03-11T16:34:14.645Z,2.80
2023-03-11T16:36:41.387Z,2.90
2023-03-11T16:39:08.138Z,2.90
2023-03-11T16:41:44.096Z,2.90
2023-03-11T16:44:11.670Z,2.90
2023-03-11T16:46:38.713Z,2.80
2023-03-11T16:49:05.687Z,2.60
2023-03-11T16:51:33.100Z,2.50
2023-03-11T16:54:01.894Z,2.40
2023-03-11T16:56:28.693Z,2.30
2023-03-11T16:58:55.666Z,2.10
2023-03-11T17:01:22.815Z,2.00
2023-03-11T17:03:53.018Z,1.90
2023-03-11T17:06:20.937Z,1.80
2023-03-11T17:08:49.634Z,1.80
2023-03-11T17:11:18.024Z,1.70
2023-03-11T17:13:44.859Z,1.60
2023-03-11T17:16:12.019Z,1.60
2023-03-11T17:18:38.992Z,1.50
2023-03-11T17:21:11.063Z,1.50
2023-03-11T17:23:37.856Z,1.50
2023-03-11T17:26:09.721Z,1.50
2023-03-11T17:28:37.369Z,1.50
2023-03-11T17:31:06.659Z,1.50
2023-03-11T17:33:33.928Z,1.60
2023-03-11T17:36:05.928Z,1.60
2023-03-11T17:38:33.202Z,1.60
2023-03-11T17:40:59.940Z,1.50
2023-03-11T17:43:26.872Z,1.50
2023-03-11T17:45:53.939Z,1.80
2023-03-11T17:48:21.326Z,1.30
2023-03-11T17:50:48.178Z,1.20
2023-03-11T17:53:15.333Z,1.20
2023-03-11T17:55:42.214Z,1.10
2023-03-11T17:58:09.576Z,1.10
2023-03-11T18:00:37.373Z,1.00
2023-03-11T18:03:10.554Z,1.00
2023-03-11T18:05:38.093Z,0.90
2023-03-11T18:08:05.092Z,0.90
2023-03-11T18:10:32.240Z,0.80
2023-03-11T18:12:59.125Z,0.70
2023-03-11T18:15:26.048Z,0.70
2023-03-11T18:17:52.981Z,0.70
2023-03-11T18:20:20.389Z,0.60
2023-03-11T18:22:47.384Z,0.60
2023-03-11T18:25:14.454Z,0.60
2023-03-11T18:27:43.921Z,0.60
2023-03-11T18:30:11.325Z,0.60
2023-03-11T18:32:38.106Z,0.50
2023-03-11T18:35:05.202Z,0.50
2023-03-11T18:37:33.430Z,0.50
2023-03-11T18:40:00.448Z,0.50
2023-03-11T18:42:27.162Z,0.50
2023-03-11T18:44:53.836Z,0.40
2023-03-11T18:47:20.541Z,0.40
2023-03-11T18:49:47.427Z,0.40
2023-03-11T18:52:14.390Z,0.40
2023-03-11T18:54:41.214Z,0.40
2023-03-11T18:57:07.942Z,0.30
2023-03-11T18:59:34.782Z,0.30
2023-03-11T19:02:01.504Z,0.20
2023-03-11T19:04:28.568Z,0.20
2023-03-11T19:06:55.358Z,0.10
2023-03-11T19:09:22.103Z,0.10
2023-03-11T19:11:48.867Z,0.10
2023-03-11T19:14:16.047Z,0.10
2023-03-11T19:16:43.141Z,0.10
2023-03-11T19:19:11.917Z,0.00
2023-03-11T19:21:38.998Z,0.00
2023-03-11T19:24:06.030Z,-0.10
2023-03-11T19:26:45.725Z,-0.10
2023-03-11T19:29:14.186Z,-0.20
2023-03-11T19:31:41.407Z,-0.20
2023-03-11T19:34:08.108Z,1.90
2023-03-11T19:36:35.081Z,-0.30
2023-03-11T19:39:01.883Z,-0.40
2023-03-11T19:41:28.691Z,-0.40
2023-03-11T19:43:55.495Z,-0.40
2023-03-11T19:46:23.721Z,-0.40
2023-03-11T19:48:50.903Z,-0.40
2023-03-11T19:51:19.461Z,-0.50
2023-03-11T19:53:47.156Z,-0.50
2023-03-11T19:56:14.206Z,-0.10
2023-03-11T19:58:42.979Z,-0.50
2023-03-11T20:01:20.646Z,-0.60
2023-03-11T20:03:48.110Z,-0.60
2023-03-11T20:06:18.327Z,-0.70
2023-03-11T20:08:45.262Z,-0.70
2023-03-11T20:11:12.516Z,-0.60
2023-03-11T20:13:42.641Z,-0.60
2023-03-11T20:16:18.344Z,-0.50
2023-03-11T20:18:48.327Z,-0.50
2023-03-11T20:21:15.384Z,-0.50
2023-03-11T20:23:42.198Z,-0.50
2023-03-11T20:26:12.822Z,-0.60
2023-03-11T20:28:40.012Z,-0.60
2023-03-11T20:31:27.171Z,-0.70
2023-03-11T20:33:55.702Z,-0.70
2023-03-11T20:36:26.181Z,-0.70
2023-03-11T20:38:55.201Z,-0.50
2023-03-11T20:41:26.033Z,-0.80
2023-03-11T20:43:55.250Z,-0.80
2023-03-11T20:46:22.845Z,-0.90
2023-03-11T20:48:49.868Z,-0.90
2023-03-11T20:51:20.851Z,-0.90
2023-03-11T20:53:49.093Z,-0.90
2023-03-11T20:56:19.802Z,-1.00
2023-03-11T20:58:48.735Z,-1.00
2023-03-11T21:01:22.110Z,-1.10
2023-03-11T21:03:49.264Z,-1.10
2023-03-11T21:06:18.342Z,-1.10
2023-03-11T21:08:46.483Z,-1.10
2023-03-11T21:11:13.791Z,-1.10
2023-03-11T21:13:40.955Z,-1.10
2023-03-11T21:16:08.627Z,-1.10
2023-03-11T21:18:35.553Z,-1.10
2023-03-11T21:21:04.026Z,-1.20
2023-03-11T21:23:30.885Z,-1.20
2023-03-11T21:25:59.105Z,-1.20
2023-03-11T21:28:26.576Z,-1.20
2023-03-11T21:31:15.522Z,-1.30
2023-03-11T21:33:42.683Z,-1.30
2023-03-11T21:36:11.096Z,-1.30
2023-03-11T21:38:40.457Z,-1.30
2023-03-11T21:41:10.666Z,-1.30
2023-03-11T21:43:38.457Z,-1.30
2023-03-11T21:46:06.639Z,-1.30
2023-03-11T21:48:33.623Z,-1.40
2023-03-11T21:51:01.063Z,-1.40
2023-03-11T21:53:28.299Z,-1.40
2023-03-11T21:55:55.093Z,-1.40
2023-03-11T21:58:22.050Z,-1.40
2023-03-11T22:00:49.270Z,-1.40
2023-03-11T22:03:16.269Z,-1.40
2023-03-11T22:05:43.214Z,-1.50
2023-03-11T22:08:10.156Z,-1.50
2023-03-11T22:10:38.129Z,-1.50
2023-03-11T22:13:05.210Z,-1.50
2023-03-11T22:15:31.937Z,-1.50
2023-03-11T22:17:58.760Z,-1.50
2023-03-11T22:20:26.158Z,-1.50
2023-03-11T22:22:54.233Z,-1.40
2023-03-11T22:25:21.483Z,-1.40
2023-03-11T22:27:48.319Z,-1.40
2023-03-11T22:30:15.162Z,-1.40
2023-03-11T22:32:41.968Z,-1.40
2023-03-11T22:35:09.085Z,-1.50
2023-03-11T22:37:35.896Z,-1.50
2023-03-11T22:40:03.619Z,-1.50
2023-03-11T22:42:30.366Z,-1.50
2023-03-11T22:44:57.162Z,-1.50
2023-03-11T22:47:23.842Z,-1.50
2023-03-11T22:49:50.513Z,-1.50
2023-03-11T22:52:17.306Z,-1.40
2023-03-11T22:54:44.363Z,-1.40
2023-03-11T22:57:11.136Z,-1.40
2023-03-11T22:59:37.847Z,-1.40
2023-03-11T23:02:04.559Z,-1.40
2023-03-11T23:04:31.504Z,-1.40
2023-03-11T23:06:58.413Z,-1.40
2023-03-11T23:09:25.170Z,-1.40
2023-03-11T23:11:52.912Z,-1.40
2023-03-11T23:14:25.663Z,-1.40
2023-03-11T23:16:54.907Z,-1.40
2023-03-11T23:19:21.613Z,-1.30
2023-03-11T23:21:48.385Z,-1.30
2023-03-11T23:24:15.107Z,-1.40
2023-03-11T23:26:41.776Z,-1.40
2023-03-11T23:29:08.471Z,-1.40
2023-03-11T23:31:36.421Z,-1.40
2023-03-11T23:34:03.421Z,-1.40
2023-03-11T23:36:30.410Z,-1.40
2023-03-11T23:38:58.385Z,-1.40
2023-03-11T23:41:25.306Z,-1.40
2023-03-11T23:43:52.301Z,-1.40
2023-03-11T23:46:19.216Z,-1.40
2023-03-11T23:48:46.071Z,-1.40
2023-03-11T23:51:13.425Z,-1.40
2023-03-11T23:53:41.019Z,-1.40
2023-03-11T23:56:13.976Z,-1.40
2023-03-11T23:58:40.850Z,-1.40
